Independence of the Seas — C6WW4 — position and weather

sailwx.info

Track history (hours):
 
Tides and Currents Weather Stations Pressure Air Temp Water Temp Dewpoint Dewpoint Depression Visibility Wind Speed Wind Dir Waves Ship Positions

Independence of the Seas

Last reported at 2018-Apr-04 01:35 UTC. Time now 2018-Apr-20 06:32 UTC.
Position N 26°10' W 079°45'.
Warning: this ship's position is 16 days out of date.

Length 339 m; draft 8.8 m.

Type: Passenger vessel. MMSI: 309374000.

Date/timePositionNaut miles runAvg speedWind from/ knotsBaromVisibWave heightAir tempDewpointWater temp
2018-Apr-04 01:35N 26°10' W 079°45'215.3
2018-Apr-04 01:28N 26°09' W 079°46'817.6
2018-Apr-04 01:00N 26°07' W 079°56'817.1
2018-Apr-04 00:30N 26°06' W 080°05'2 3.9
2018-Apr-03 23:57N 26°05' W 080°07'0 0.0
2018-Apr-03 23:30N 26°05' W 080°07'0 0.0
2018-Apr-03 23:00N 26°05' W 080°07'0 0.0
2018-Apr-03 22:30N 26°05' W 080°07'0 0.0
2018-Apr-03 22:00N 26°05' W 080°07'0 0.0
2018-Apr-03 21:30N 26°05' W 080°07'0 0.0
2018-Apr-03 21:00N 26°05' W 080°07'0 0.0
2018-Apr-03 20:30N 26°05' W 080°07'0 0.0
2018-Apr-03 20:00N 26°05' W 080°07'0 0.0
2018-Apr-03 19:30N 26°05' W 080°07'0 0.0
2018-Apr-03 19:00N 26°05' W 080°07'0 0.0
2018-Apr-03 18:30N 26°05' W 080°07'0 0.0
2018-Apr-03 18:00N 26°05' W 080°07'0 0.0
2018-Apr-03 17:30N 26°05' W 080°07'0 0.0
2018-Apr-03 17:00N 26°05' W 080°07'0 0.0
2018-Apr-03 16:30N 26°05' W 080°07'0 0.0
2018-Apr-03 16:00N 26°05' W 080°07'0 0.0
2018-Apr-03 15:30N 26°05' W 080°07'0 0.0
2018-Apr-03 15:00N 26°05' W 080°07'0 0.0
2018-Apr-03 14:30N 26°05' W 080°07'0 0.0
2018-Apr-03 14:00N 26°05' W 080°07'0 0.0
2018-Apr-03 13:30N 26°05' W 080°07'0 0.0
2018-Apr-03 13:00N 26°05' W 080°07'0 0.0
2018-Apr-03 12:30N 26°05' W 080°07'0 0.0
2018-Apr-03 12:00N 26°05' W 080°07'0 0.0
2018-Apr-03 11:30N 26°05' W 080°07'0 0.0
2018-Apr-03 11:00N 26°05' W 080°07'0 0.0
2018-Apr-03 10:30N 26°05' W 080°07'0 0.5
2018-Apr-03 10:00N 26°06' W 080°07'4 7.4
2018-Apr-03 09:30N 26°06' W 080°03'714.2
2018-Apr-03 09:00N 26°04' W 079°55'815.5
2018-Apr-03 08:30N 25°58' W 079°50'918.1
2018-Apr-03 08:00N 25°48' W 079°50'918.9
2018-Apr-03 07:30N 25°39' W 079°50'1020.1
2018-Apr-03 07:00N 25°29' W 079°50'  
2018-Mar-31 21:39N 20°33' W 086°58'216.3
2018-Mar-31 21:30N 20°31' W 086°59'2 3.8
2018-Mar-31 20:59N 20°29' W 086°59'0 0.0
2018-Mar-31 20:26N 20°29' W 086°59'0 0.0
2018-Mar-31 19:59N 20°29' W 086°59'0 0.0
2018-Mar-31 19:29N 20°29' W 086°59'0 0.0
2018-Mar-31 18:59N 20°29' W 086°59'0 0.0
2018-Mar-31 18:29N 20°29' W 086°59'0 0.0
2018-Mar-31 17:59N 20°29' W 086°59'0 0.0
2018-Mar-31 17:29N 20°29' W 086°59'0 0.0
2018-Mar-31 16:59N 20°29' W 086°59'0 0.0
2018-Mar-31 16:29N 20°29' W 086°59'0 0.0
2018-Mar-31 15:59N 20°29' W 086°59'0 0.0
2018-Mar-31 15:29N 20°29' W 086°59'0 0.0
2018-Mar-31 14:59N 20°29' W 086°59'0 0.0
2018-Mar-31 14:29N 20°29' W 086°59'0 0.0
2018-Mar-31 13:47N 20°29' W 086°59'0 0.0
2018-Mar-31 13:29N 20°29' W 086°59'0 0.0
2018-Mar-31 12:59N 20°29' W 086°59'0 0.0
2018-Mar-31 12:29N 20°29' W 086°59'0 0.0
2018-Mar-31 11:59N 20°29' W 086°59'1 2.9
2018-Mar-31 11:30N 20°30' W 086°59'711.4
2018-Mar-31 10:56N 20°36' W 086°55'48514.0
2018-Mar-30 00:20N 25°33' W 079°59'516.5
2018-Mar-30 00:00N 25°38' W 079°59'816.9
2018-Mar-29 23:31N 25°47' W 079°60'815.4
2018-Mar-29 23:01N 25°54' W 080°01'815.7
2018-Mar-29 22:30N 26°02' W 080°03'4 8.3
2018-Mar-29 22:00N 26°06' W 080°05'2 4.3
2018-Mar-29 21:31N 26°05' W 080°07'0 0.0
2018-Mar-29 20:55N 26°05' W 080°07'0 0.0
2018-Mar-29 20:28N 26°05' W 080°07'0 0.0
2018-Mar-29 19:58N 26°05' W 080°07'0 0.0
2018-Mar-29 19:28N 26°05' W 080°07'0 0.0
2018-Mar-29 18:58N 26°05' W 080°07'0 0.0
2018-Mar-29 18:28N 26°05' W 080°07'0 0.0
2018-Mar-29 17:58N 26°05' W 080°07'0 0.0
2018-Mar-29 17:28N 26°05' W 080°07'0 0.0
2018-Mar-29 16:58N 26°05' W 080°07'0 0.0
2018-Mar-29 16:28N 26°05' W 080°07'0 0.0
2018-Mar-29 15:58N 26°05' W 080°07'0 0.0
2018-Mar-29 15:28N 26°05' W 080°07'0 0.0
2018-Mar-29 14:58N 26°05' W 080°07'0 0.0
2018-Mar-29 14:28N 26°05' W 080°07'0 0.0
2018-Mar-29 13:58N 26°05' W 080°07'0 0.0
2018-Mar-29 13:28N 26°05' W 080°07'0 0.0
2018-Mar-29 12:58N 26°05' W 080°07'0 0.0
2018-Mar-29 12:28N 26°05' W 080°07'0 0.0
2018-Mar-29 11:58N 26°05' W 080°07'0 0.0
2018-Mar-29 11:28N 26°05' W 080°07'0 0.0
2018-Mar-29 10:58N 26°05' W 080°07'0 0.1
2018-Mar-29 10:30N 26°05' W 080°07'2 3.3
2018-Mar-29 10:00N 26°06' W 080°05'510.3
2018-Mar-29 09:30N 26°02' W 080°01'714.3
2018-Mar-29 09:00N 25°55' W 079°59'713.8
2018-Mar-29 08:30N 25°48' W 079°58'713.8
2018-Mar-29 08:01N 25°42' W 079°58'713.5
2018-Mar-29 07:31N 25°35' W 079°58'713.3
2018-Mar-29 07:00N 25°28' W 079°58'48715.6
2018-Mar-27 23:51N 20°33' W 086°58'411.0
2018-Mar-27 23:30N 20°29' W 086°59'0 0.3
2018-Mar-27 22:59N 20°29' W 086°59'0 0.0
2018-Mar-27 22:29N 20°29' W 086°59'0 0.0
2018-Mar-27 21:59N 20°29' W 086°59'0 0.0
2018-Mar-27 21:29N 20°29' W 086°59'0 0.0
2018-Mar-27 20:59N 20°29' W 086°59'0 0.0
2018-Mar-27 20:29N 20°29' W 086°59'0 0.0
2018-Mar-27 19:59N 20°29' W 086°59'0 0.0
2018-Mar-27 19:29N 20°29' W 086°59'0 0.0
2018-Mar-27 18:59N 20°29' W 086°59'0 0.0
2018-Mar-27 18:29N 20°29' W 086°59'0 0.0
2018-Mar-27 17:59N 20°29' W 086°59'0 0.0
2018-Mar-27 17:29N 20°29' W 086°59'0 0.0
2018-Mar-27 13:56N 20°29' W 086°59'0 0.0
2018-Mar-27 13:29N 20°29' W 086°59'0 0.0
2018-Mar-27 12:59N 20°29' W 086°59'1 1.8
2018-Mar-27 12:30N 20°29' W 086°59'  
Track history (hours):
 
Tides and Currents Weather Stations Pressure Air Temp Water Temp Dewpoint Dewpoint Depression Visibility Wind Speed Wind Dir Waves Ship Positions

Independence of the Seas

Last reported at 2018-Apr-04 01:35 UTC. Time now 2018-Apr-20 06:32 UTC.
Position N 26°10' W 079°45'.
Warning: this ship's position is 16 days out of date.

Length 339 m; draft 8.8 m.

Type: Passenger vessel. MMSI: 309374000.

Date/timePositionNaut miles runAvg speedWind from/ knotsBaromVisibWave heightAir tempDewpointWater temp
2018-Apr-04 01:35N 26°10' W 079°45'215.3
2018-Apr-04 01:28N 26°09' W 079°46'817.6
2018-Apr-04 01:00N 26°07' W 079°56'817.1
2018-Apr-04 00:30N 26°06' W 080°05'2 3.9
2018-Apr-03 23:57N 26°05' W 080°07'0 0.0
2018-Apr-03 23:30N 26°05' W 080°07'0 0.0
2018-Apr-03 23:00N 26°05' W 080°07'0 0.0
2018-Apr-03 22:30N 26°05' W 080°07'0 0.0
2018-Apr-03 22:00N 26°05' W 080°07'0 0.0
2018-Apr-03 21:30N 26°05' W 080°07'0 0.0
2018-Apr-03 21:00N 26°05' W 080°07'0 0.0
2018-Apr-03 20:30N 26°05' W 080°07'0 0.0
2018-Apr-03 20:00N 26°05' W 080°07'0 0.0
2018-Apr-03 19:30N 26°05' W 080°07'0 0.0
2018-Apr-03 19:00N 26°05' W 080°07'0 0.0
2018-Apr-03 18:30N 26°05' W 080°07'0 0.0
2018-Apr-03 18:00N 26°05' W 080°07'0 0.0
2018-Apr-03 17:30N 26°05' W 080°07'0 0.0
2018-Apr-03 17:00N 26°05' W 080°07'0 0.0
2018-Apr-03 16:30N 26°05' W 080°07'0 0.0
2018-Apr-03 16:00N 26°05' W 080°07'0 0.0
2018-Apr-03 15:30N 26°05' W 080°07'0 0.0
2018-Apr-03 15:00N 26°05' W 080°07'0 0.0
2018-Apr-03 14:30N 26°05' W 080°07'0 0.0
2018-Apr-03 14:00N 26°05' W 080°07'0 0.0
2018-Apr-03 13:30N 26°05' W 080°07'0 0.0
2018-Apr-03 13:00N 26°05' W 080°07'0 0.0
2018-Apr-03 12:30N 26°05' W 080°07'0 0.0
2018-Apr-03 12:00N 26°05' W 080°07'0 0.0
2018-Apr-03 11:30N 26°05' W 080°07'0 0.0
2018-Apr-03 11:00N 26°05' W 080°07'0 0.0
2018-Apr-03 10:30N 26°05' W 080°07'0 0.5
2018-Apr-03 10:00N 26°06' W 080°07'4 7.4
2018-Apr-03 09:30N 26°06' W 080°03'714.2
2018-Apr-03 09:00N 26°04' W 079°55'815.5
2018-Apr-03 08:30N 25°58' W 079°50'918.1
2018-Apr-03 08:00N 25°48' W 079°50'918.9
2018-Apr-03 07:30N 25°39' W 079°50'1020.1
2018-Apr-03 07:00N 25°29' W 079°50'  
2018-Mar-31 21:39N 20°33' W 086°58'216.3
2018-Mar-31 21:30N 20°31' W 086°59'2 3.8
2018-Mar-31 20:59N 20°29' W 086°59'0 0.0
2018-Mar-31 20:26N 20°29' W 086°59'0 0.0
2018-Mar-31 19:59N 20°29' W 086°59'0 0.0
2018-Mar-31 19:29N 20°29' W 086°59'0 0.0
2018-Mar-31 18:59N 20°29' W 086°59'0 0.0
2018-Mar-31 18:29N 20°29' W 086°59'0 0.0
2018-Mar-31 17:59N 20°29' W 086°59'0 0.0
2018-Mar-31 17:29N 20°29' W 086°59'0 0.0
2018-Mar-31 16:59N 20°29' W 086°59'0 0.0
2018-Mar-31 16:29N 20°29' W 086°59'0 0.0
2018-Mar-31 15:59N 20°29' W 086°59'0 0.0
2018-Mar-31 15:29N 20°29' W 086°59'0 0.0
2018-Mar-31 14:59N 20°29' W 086°59'0 0.0
2018-Mar-31 14:29N 20°29' W 086°59'0 0.0
2018-Mar-31 13:47N 20°29' W 086°59'0 0.0
2018-Mar-31 13:29N 20°29' W 086°59'0 0.0
2018-Mar-31 12:59N 20°29' W 086°59'0 0.0
2018-Mar-31 12:29N 20°29' W 086°59'0 0.0
2018-Mar-31 11:59N 20°29' W 086°59'1 2.9
2018-Mar-31 11:30N 20°30' W 086°59'711.4
2018-Mar-31 10:56N 20°36' W 086°55'48514.0
2018-Mar-30 00:20N 25°33' W 079°59'516.5
2018-Mar-30 00:00N 25°38' W 079°59'816.9
2018-Mar-29 23:31N 25°47' W 079°60'815.4
2018-Mar-29 23:01N 25°54' W 080°01'815.7
2018-Mar-29 22:30N 26°02' W 080°03'4 8.3
2018-Mar-29 22:00N 26°06' W 080°05'2 4.3
2018-Mar-29 21:31N 26°05' W 080°07'0 0.0
2018-Mar-29 20:55N 26°05' W 080°07'0 0.0
2018-Mar-29 20:28N 26°05' W 080°07'0 0.0
2018-Mar-29 19:58N 26°05' W 080°07'0 0.0
2018-Mar-29 19:28N 26°05' W 080°07'0 0.0
2018-Mar-29 18:58N 26°05' W 080°07'0 0.0
2018-Mar-29 18:28N 26°05' W 080°07'0 0.0
2018-Mar-29 17:58N 26°05' W 080°07'0 0.0
2018-Mar-29 17:28N 26°05' W 080°07'0 0.0
2018-Mar-29 16:58N 26°05' W 080°07'0 0.0
2018-Mar-29 16:28N 26°05' W 080°07'0 0.0
2018-Mar-29 15:58N 26°05' W 080°07'0 0.0
2018-Mar-29 15:28N 26°05' W 080°07'0 0.0
2018-Mar-29 14:58N 26°05' W 080°07'0 0.0
2018-Mar-29 14:28N 26°05' W 080°07'0 0.0
2018-Mar-29 13:58N 26°05' W 080°07'0 0.0
2018-Mar-29 13:28N 26°05' W 080°07'0 0.0
2018-Mar-29 12:58N 26°05' W 080°07'0 0.0
2018-Mar-29 12:28N 26°05' W 080°07'0 0.0
2018-Mar-29 11:58N 26°05' W 080°07'0 0.0
2018-Mar-29 11:28N 26°05' W 080°07'0 0.0
2018-Mar-29 10:58N 26°05' W 080°07'0 0.1
2018-Mar-29 10:30N 26°05' W 080°07'2 3.3
2018-Mar-29 10:00N 26°06' W 080°05'510.3
2018-Mar-29 09:30N 26°02' W 080°01'714.3
2018-Mar-29 09:00N 25°55' W 079°59'713.8
2018-Mar-29 08:30N 25°48' W 079°58'713.8
2018-Mar-29 08:01N 25°42' W 079°58'713.5
2018-Mar-29 07:31N 25°35' W 079°58'713.3
2018-Mar-29 07:00N 25°28' W 079°58'48715.6
2018-Mar-27 23:51N 20°33' W 086°58'411.0
2018-Mar-27 23:30N 20°29' W 086°59'0 0.3
2018-Mar-27 22:59N 20°29' W 086°59'0 0.0
2018-Mar-27 22:29N 20°29' W 086°59'0 0.0
2018-Mar-27 21:59N 20°29' W 086°59'0 0.0
2018-Mar-27 21:29N 20°29' W 086°59'0 0.0
2018-Mar-27 20:59N 20°29' W 086°59'0 0.0
2018-Mar-27 20:29N 20°29' W 086°59'0 0.0
2018-Mar-27 19:59N 20°29' W 086°59'0 0.0
2018-Mar-27 19:29N 20°29' W 086°59'0 0.0
2018-Mar-27 18:59N 20°29' W 086°59'0 0.0
2018-Mar-27 18:29N 20°29' W 086°59'0 0.0
2018-Mar-27 17:59N 20°29' W 086°59'0 0.0
2018-Mar-27 17:29N 20°29' W 086°59'0 0.0
2018-Mar-27 13:56N 20°29' W 086°59'0 0.0
2018-Mar-27 13:29N 20°29' W 086°59'0 0.0
2018-Mar-27 12:59N 20°29' W 086°59'1 1.8
2018-Mar-27 12:30N 20°29' W 086°59'  

Dump ship's entire track history